sensor_id;sensor_type;location;lat;lon;timestamp;temperature;humidity
53675;DHT22;39574;50.534;8.500;2023-02-03T00:03:31;7.2;99.9
53675;DHT22;39574;50.534;8.500;2023-02-03T00:08:45;7.2;99.9
53675;DHT22;39574;50.534;8.500;2023-02-03T00:18:11;7.1;99.9
53675;DHT22;39574;50.534;8.500;2023-02-03T00:23:11;7.0;99.9
53675;DHT22;39574;50.534;8.500;2023-02-03T00:28:21;7.0;99.9
53675;DHT22;39574;50.534;8.500;2023-02-03T00:33:24;7.0;99.9
53675;DHT22;39574;50.534;8.500;2023-02-03T00:38:26;7.0;99.9
53675;DHT22;39574;50.534;8.500;2023-02-03T00:43:37;7.0;99.9
53675;DHT22;39574;50.534;8.500;2023-02-03T00:48:37;7.0;99.9
53675;DHT22;39574;50.534;8.500;2023-02-03T00:57:55;7.0;99.9
53675;DHT22;39574;50.534;8.500;2023-02-03T01:03:02;7.0;99.9
53675;DHT22;39574;50.534;8.500;2023-02-03T01:08:03;7.0;99.9
53675;DHT22;39574;50.534;8.500;2023-02-03T01:13:17;7.1;99.9
53675;DHT22;39574;50.534;8.500;2023-02-03T01:18:24;7.1;99.9
53675;DHT22;39574;50.534;8.500;2023-02-03T01:23:29;7.1;99.9
53675;DHT22;39574;50.534;8.500;2023-02-03T01:32:54;7.2;99.9
53675;DHT22;39574;50.534;8.500;2023-02-03T01:38:07;7.2;99.9
53675;DHT22;39574;50.534;8.500;2023-02-03T01:43:35;7.2;99.9
53675;DHT22;39574;50.534;8.500;2023-02-03T01:53:00;7.2;99.9
53675;DHT22;39574;50.534;8.500;2023-02-03T01:58:07;7.2;99.9
53675;DHT22;39574;50.534;8.500;2023-02-03T02:03:13;7.2;99.9
53675;DHT22;39574;50.534;8.500;2023-02-03T02:12:43;7.2;99.9
53675;DHT22;39574;50.534;8.500;2023-02-03T02:17:56;7.2;99.9
53675;DHT22;39574;50.534;8.500;2023-02-03T02:23:04;7.1;99.9
53675;DHT22;39574;50.534;8.500;2023-02-03T02:28:16;7.2;99.9
53675;DHT22;39574;50.534;8.500;2023-02-03T02:37:43;7.2;99.9
53675;DHT22;39574;50.534;8.500;2023-02-03T02:42:52;7.2;99.9
53675;DHT22;39574;50.534;8.500;2023-02-03T02:47:51;7.3;99.9
53675;DHT22;39574;50.534;8.500;2023-02-03T02:52:53;7.3;99.9
53675;DHT22;39574;50.534;8.500;2023-02-03T02:58:07;7.3;99.9
53675;DHT22;39574;50.534;8.500;2023-02-03T03:07:30;7.3;99.9
53675;DHT22;39574;50.534;8.500;2023-02-03T03:12:45;7.3;99.9
53675;DHT22;39574;50.534;8.500;2023-02-03T03:18:00;7.3;99.9
53675;DHT22;39574;50.534;8.500;2023-02-03T03:27:19;7.3;99.9
53675;DHT22;39574;50.534;8.500;2023-02-03T03:32:37;7.4;99.9
53675;DHT22;39574;50.534;8.500;2023-02-03T03:37:40;7.3;99.9
53675;DHT22;39574;50.534;8.500;2023-02-03T03:42:43;7.3;99.9
53675;DHT22;39574;50.534;8.500;2023-02-03T03:47:52;7.3;99.9
53675;DHT22;39574;50.534;8.500;2023-02-03T03:52:52;7.3;99.9
53675;DHT22;39574;50.534;8.500;2023-02-03T04:02:27;7.3;99.9
53675;DHT22;39574;50.534;8.500;2023-02-03T04:07:37;7.4;99.9
53675;DHT22;39574;50.534;8.500;2023-02-03T04:12:41;7.5;99.9
53675;DHT22;39574;50.534;8.500;2023-02-03T04:17:46;7.6;99.9
53675;DHT22;39574;50.534;8.500;2023-02-03T04:27:12;7.6;99.9
53675;DHT22;39574;50.534;8.500;2023-02-03T04:32:24;7.6;99.9
53675;DHT22;39574;50.534;8.500;2023-02-03T04:37:36;7.7;99.9
53675;DHT22;39574;50.534;8.500;2023-02-03T04:42:38;7.8;99.9
53675;DHT22;39574;50.534;8.500;2023-02-03T04:51:58;7.8;99.9
53675;DHT22;39574;50.534;8.500;2023-02-03T04:57:16;7.8;99.9
53675;DHT22;39574;50.534;8.500;2023-02-03T05:02:31;7.8;99.9
53675;DHT22;39574;50.534;8.500;2023-02-03T05:12:13;7.8;99.9
53675;DHT22;39574;50.534;8.500;2023-02-03T05:17:14;7.7;99.9
53675;DHT22;39574;50.534;8.500;2023-02-03T05:22:29;7.7;99.9
53675;DHT22;39574;50.534;8.500;2023-02-03T05:31:49;7.7;99.9
53675;DHT22;39574;50.534;8.500;2023-02-03T05:37:08;7.6;99.9
53675;DHT22;39574;50.534;8.500;2023-02-03T05:42:21;7.6;99.9
53675;DHT22;39574;50.534;8.500;2023-02-03T05:47:25;7.6;99.9
53675;DHT22;39574;50.534;8.500;2023-02-03T05:56:48;7.6;99.9
53675;DHT22;39574;50.534;8.500;2023-02-03T06:02:02;7.6;99.9
53675;DHT22;39574;50.534;8.500;2023-02-03T06:07:05;7.7;99.9
53675;DHT22;39574;50.534;8.500;2023-02-03T06:12:20;7.7;99.9
53675;DHT22;39574;50.534;8.500;2023-02-03T06:21:56;7.7;99.9
53675;DHT22;39574;50.534;8.500;2023-02-03T06:26:58;7.7;99.9
53675;DHT22;39574;50.534;8.500;2023-02-03T06:32:12;7.7;99.9
53675;DHT22;39574;50.534;8.500;2023-02-03T06:41:23;7.8;99.9
53675;DHT22;39574;50.534;8.500;2023-02-03T06:46:33;7.8;99.9
53675;DHT22;39574;50.534;8.500;2023-02-03T06:51:37;7.9;99.9
53675;DHT22;39574;50.534;8.500;2023-02-03T06:56:39;7.9;99.9
53675;DHT22;39574;50.534;8.500;2023-02-03T07:01:53;7.9;99.9
53675;DHT22;39574;50.534;8.500;2023-02-03T07:07:06;7.9;99.9
53675;DHT22;39574;50.534;8.500;2023-02-03T07:16:31;7.9;99.9
53675;DHT22;39574;50.534;8.500;2023-02-03T07:21:33;7.9;99.9
53675;DHT22;39574;50.534;8.500;2023-02-03T07:26:45;7.9;99.9
53675;DHT22;39574;50.534;8.500;2023-02-03T07:31:54;7.9;99.9
53675;DHT22;39574;50.534;8.500;2023-02-03T07:36:56;7.9;99.9
53675;DHT22;39574;50.534;8.500;2023-02-03T07:46:37;7.9;99.9
53675;DHT22;39574;50.534;8.500;2023-02-03T07:51:37;8.0;99.9
53675;DHT22;39574;50.534;8.500;2023-02-03T07:56:48;8.0;99.9
53675;DHT22;39574;50.534;8.500;2023-02-03T08:01:48;8.0;99.9
53675;DHT22;39574;50.534;8.500;2023-02-03T08:06:53;8.1;99.9
53675;DHT22;39574;50.534;8.500;2023-02-03T08:16:19;8.1;99.9
53675;DHT22;39574;50.534;8.500;2023-02-03T08:21:19;8.1;99.9
53675;DHT22;39574;50.534;8.500;2023-02-03T08:26:32;8.2;99.9
53675;DHT22;39574;50.534;8.500;2023-02-03T08:31:44;8.2;99.9
53675;DHT22;39574;50.534;8.500;2023-02-03T08:41:24;8.2;99.9
53675;DHT22;39574;50.534;8.500;2023-02-03T08:46:38;8.3;99.9
53675;DHT22;39574;50.534;8.500;2023-02-03T08:51:42;8.3;99.9
53675;DHT22;39574;50.534;8.500;2023-02-03T09:01:19;8.3;99.9
53675;DHT22;39574;50.534;8.500;2023-02-03T09:11:35;8.4;99.9
53675;DHT22;39574;50.534;8.500;2023-02-03T09:16:36;8.5;99.9
53675;DHT22;39574;50.534;8.500;2023-02-03T09:26:00;8.5;99.9
53675;DHT22;39574;50.534;8.500;2023-02-03T09:31:38;8.6;99.9
53675;DHT22;39574;50.534;8.500;2023-02-03T09:40:39;8.6;99.9
53675;DHT22;39574;50.534;8.500;2023-02-03T09:46:01;8.6;99.9
53675;DHT22;39574;50.534;8.500;2023-02-03T09:50:57;8.6;99.9
53675;DHT22;39574;50.534;8.500;2023-02-03T09:56:08;8.6;99.9
53675;DHT22;39574;50.534;8.500;2023-02-03T10:01:10;8.6;99.9
53675;DHT22;39574;50.534;8.500;2023-02-03T10:06:23;8.6;99.9
53675;DHT22;39574;50.534;8.500;2023-02-03T10:15:46;8.6;99.9
53675;DHT22;39574;50.534;8.500;2023-02-03T10:20:58;8.4;99.9
53675;DHT22;39574;50.534;8.500;2023-02-03T10:26:05;8.4;99.9
53675;DHT22;39574;50.534;8.500;2023-02-03T10:31:17;8.3;99.9
53675;DHT22;39574;50.534;8.500;2023-02-03T10:40:50;8.2;99.9
53675;DHT22;39574;50.534;8.500;2023-02-03T10:45:59;8.1;99.9
53675;DHT22;39574;50.534;8.500;2023-02-03T10:51:11;8.1;99.9
53675;DHT22;39574;50.534;8.500;2023-02-03T10:56:11;8.1;99.9
53675;DHT22;39574;50.534;8.500;2023-02-03T11:05:38;8.1;99.9
53675;DHT22;39574;50.534;8.500;2023-02-03T11:10:49;8.0;99.9
53675;DHT22;39574;50.534;8.500;2023-02-03T11:15:50;8.0;99.9
53675;DHT22;39574;50.534;8.500;2023-02-03T11:20:50;8.0;99.9
53675;DHT22;39574;50.534;8.500;2023-02-03T11:26:10;7.9;99.9
53675;DHT22;39574;50.534;8.500;2023-02-03T11:35:32;7.9;99.9
53675;DHT22;39574;50.534;8.500;2023-02-03T11:40:42;7.9;99.9
53675;DHT22;39574;50.534;8.500;2023-02-03T11:45:58;7.9;99.9
53675;DHT22;39574;50.534;8.500;2023-02-03T11:51:03;7.9;99.9
53675;DHT22;39574;50.534;8.500;2023-02-03T12:00:20;7.9;99.9
53675;DHT22;39574;50.534;8.500;2023-02-03T12:05:30;7.9;99.9
53675;DHT22;39574;50.534;8.500;2023-02-03T12:10:27;7.9;99.9
53675;DHT22;39574;50.534;8.500;2023-02-03T12:15:38;7.9;99.9
53675;DHT22;39574;50.534;8.500;2023-02-03T12:20:51;8.0;99.9
53675;DHT22;39574;50.534;8.500;2023-02-03T12:25:54;8.0;99.9
53675;DHT22;39574;50.534;8.500;2023-02-03T12:34:56;7.9;99.9
53675;DHT22;39574;50.534;8.500;2023-02-03T12:40:17;8.0;99.9
53675;DHT22;39574;50.534;8.500;2023-02-03T12:45:29;8.0;99.9
53675;DHT22;39574;50.534;8.500;2023-02-03T12:50:31;8.0;99.9
53675;DHT22;39574;50.534;8.500;2023-02-03T12:55:39;8.0;99.9
53675;DHT22;39574;50.534;8.500;2023-02-03T13:00:42;8.1;99.9
53675;DHT22;39574;50.534;8.500;2023-02-03T13:09:52;8.2;99.9
53675;DHT22;39574;50.534;8.500;2023-02-03T13:15:17;8.2;99.9
53675;DHT22;39574;50.534;8.500;2023-02-03T13:20:23;8.3;99.9
53675;DHT22;39574;50.534;8.500;2023-02-03T13:25:38;8.3;99.9
53675;DHT22;39574;50.534;8.500;2023-02-03T13:30:57;8.4;99.9
53675;DHT22;39574;50.534;8.500;2023-02-03T13:40:04;8.4;99.9
53675;DHT22;39574;50.534;8.500;2023-02-03T13:45:08;8.4;99.9
53675;DHT22;39574;50.534;8.500;2023-02-03T13:50:17;8.4;99.9
53675;DHT22;39574;50.534;8.500;2023-02-03T13:55:24;8.5;99.9
53675;DHT22;39574;50.534;8.500;2023-02-03T14:01:28;8.5;99.9
53675;DHT22;39574;50.534;8.500;2023-02-03T14:05:41;8.5;99.9
53675;DHT22;39574;50.534;8.500;2023-02-03T14:14:55;8.5;99.9
53675;DHT22;39574;50.534;8.500;2023-02-03T14:20:32;8.6;99.9
53675;DHT22;39574;50.534;8.500;2023-02-03T14:25:18;8.6;99.9
53675;DHT22;39574;50.534;8.500;2023-02-03T14:30:19;8.6;99.9
53675;DHT22;39574;50.534;8.500;2023-02-03T14:35:20;8.5;99.9
53675;DHT22;39574;50.534;8.500;2023-02-03T14:49:32;8.6;99.9
53675;DHT22;39574;50.534;8.500;2023-02-03T14:54:58;8.6;99.9
53675;DHT22;39574;50.534;8.500;2023-02-03T14:59:58;8.6;99.9
53675;DHT22;39574;50.534;8.500;2023-02-03T15:05:41;8.6;99.9
53675;DHT22;39574;50.534;8.500;2023-02-03T15:10:11;8.6;99.9
53675;DHT22;39574;50.534;8.500;2023-02-03T15:15:11;8.7;99.9
53675;DHT22;39574;50.534;8.500;2023-02-03T15:24:36;8.8;99.9
53675;DHT22;39574;50.534;8.500;2023-02-03T15:29:48;8.8;99.9
53675;DHT22;39574;50.534;8.500;2023-02-03T15:35:00;8.8;99.9
53675;DHT22;39574;50.534;8.500;2023-02-03T15:44:16;8.9;99.9
53675;DHT22;39574;50.534;8.500;2023-02-03T15:49:31;8.8;99.9
53675;DHT22;39574;50.534;8.500;2023-02-03T15:54:43;8.8;99.9
53675;DHT22;39574;50.534;8.500;2023-02-03T15:59:48;8.7;99.9
53675;DHT22;39574;50.534;8.500;2023-02-03T16:04:55;8.7;99.9
53675;DHT22;39574;50.534;8.500;2023-02-03T16:09:58;8.6;99.9
53675;DHT22;39574;50.534;8.500;2023-02-03T16:19:24;8.7;99.9
53675;DHT22;39574;50.534;8.500;2023-02-03T16:24:36;8.7;99.9
53675;DHT22;39574;50.534;8.500;2023-02-03T16:29:37;8.7;99.9
53675;DHT22;39574;50.534;8.500;2023-02-03T16:34:51;8.7;99.9
53675;DHT22;39574;50.534;8.500;2023-02-03T16:39:52;8.7;99.9
53675;DHT22;39574;50.534;8.500;2023-02-03T16:49:29;8.6;99.9
53675;DHT22;39574;50.534;8.500;2023-02-03T16:54:34;8.5;99.9
53675;DHT22;39574;50.534;8.500;2023-02-03T16:59:46;8.4;99.9
53675;DHT22;39574;50.534;8.500;2023-02-03T17:09:24;8.4;99.9
53675;DHT22;39574;50.534;8.500;2023-02-03T17:14:29;8.4;99.9
53675;DHT22;39574;50.534;8.500;2023-02-03T17:19:43;8.5;99.9
53675;DHT22;39574;50.534;8.500;2023-02-03T17:29:00;8.5;99.9
53675;DHT22;39574;50.534;8.500;2023-02-03T17:34:07;8.5;99.9
53675;DHT22;39574;50.534;8.500;2023-02-03T17:39:17;8.5;99.9
53675;DHT22;39574;50.534;8.500;2023-02-03T17:44:23;8.5;99.9
53675;DHT22;39574;50.534;8.500;2023-02-03T17:49:30;8.4;99.9
53675;DHT22;39574;50.534;8.500;2023-02-03T17:59:16;8.3;99.9
53675;DHT22;39574;50.534;8.500;2023-02-03T18:04:29;8.2;99.9
53675;DHT22;39574;50.534;8.500;2023-02-03T18:09:29;8.1;99.9
53675;DHT22;39574;50.534;8.500;2023-02-03T18:18:57;8.0;99.9
53675;DHT22;39574;50.534;8.500;2023-02-03T18:24:06;8.0;99.9
53675;DHT22;39574;50.534;8.500;2023-02-03T18:29:09;7.9;99.9
53675;DHT22;39574;50.534;8.500;2023-02-03T18:34:08;7.9;99.9
53675;DHT22;39574;50.534;8.500;2023-02-03T18:39:22;7.9;99.9
53675;DHT22;39574;50.534;8.500;2023-02-03T18:48:48;7.9;99.9
53675;DHT22;39574;50.534;8.500;2023-02-03T18:53:49;7.8;99.9
53675;DHT22;39574;50.534;8.500;2023-02-03T18:59:02;7.8;99.9
53675;DHT22;39574;50.534;8.500;2023-02-03T19:04:03;7.8;99.9
53675;DHT22;39574;50.534;8.500;2023-02-03T19:09:18;7.8;99.9
53675;DHT22;39574;50.534;8.500;2023-02-03T19:18:40;7.8;99.9
53675;DHT22;39574;50.534;8.500;2023-02-03T19:23:42;7.8;99.9
53675;DHT22;39574;50.534;8.500;2023-02-03T19:28:52;7.8;99.9
53675;DHT22;39574;50.534;8.500;2023-02-03T19:33:55;7.8;99.9
53675;DHT22;39574;50.534;8.500;2023-02-03T19:39:05;7.8;99.9
53675;DHT22;39574;50.534;8.500;2023-02-03T19:48:35;7.9;99.9
53675;DHT22;39574;50.534;8.500;2023-02-03T19:53:47;7.9;99.9
53675;DHT22;39574;50.534;8.500;2023-02-03T19:58:50;7.9;99.9
53675;DHT22;39574;50.534;8.500;2023-02-03T20:04:01;7.9;99.9
53675;DHT22;39574;50.534;8.500;2023-02-03T20:13:41;7.8;99.9
53675;DHT22;39574;50.534;8.500;2023-02-03T20:18:55;7.8;99.9
53675;DHT22;39574;50.534;8.500;2023-02-03T20:23:57;7.7;99.9
53675;DHT22;39574;50.534;8.500;2023-02-03T20:33:21;7.7;99.9
53675;DHT22;39574;50.534;8.500;2023-02-03T20:38:21;7.6;99.9
53675;DHT22;39574;50.534;8.500;2023-02-03T20:43:23;7.5;99.9
53675;DHT22;39574;50.534;8.500;2023-02-03T20:48:35;7.5;99.9
53675;DHT22;39574;50.534;8.500;2023-02-03T20:53:36;7.5;99.9
53675;DHT22;39574;50.534;8.500;2023-02-03T20:58:49;7.4;99.9
53675;DHT22;39574;50.534;8.500;2023-02-03T21:07:58;7.4;99.9
53675;DHT22;39574;50.534;8.500;2023-02-03T21:13:19;7.4;99.9
53675;DHT22;39574;50.534;8.500;2023-02-03T21:18:27;7.4;99.9
53675;DHT22;39574;50.534;8.500;2023-02-03T21:23:32;7.3;99.9
53675;DHT22;39574;50.534;8.500;2023-02-03T21:28:38;7.3;99.9
53675;DHT22;39574;50.534;8.500;2023-02-03T21:33:40;7.4;99.9
53675;DHT22;39574;50.534;8.500;2023-02-03T21:43:09;7.4;99.9
53675;DHT22;39574;50.534;8.500;2023-02-03T21:48:23;7.4;99.9
53675;DHT22;39574;50.534;8.500;2023-02-03T21:53:25;7.5;99.9
53675;DHT22;39574;50.534;8.500;2023-02-03T21:58:33;7.4;99.9
53675;DHT22;39574;50.534;8.500;2023-02-03T22:03:35;7.4;99.9
53675;DHT22;39574;50.534;8.500;2023-02-03T22:13:06;7.4;99.9
53675;DHT22;39574;50.534;8.500;2023-02-03T22:18:13;7.4;99.9
53675;DHT22;39574;50.534;8.500;2023-02-03T22:23:16;7.3;99.9
53675;DHT22;39574;50.534;8.500;2023-02-03T22:28:28;7.3;99.9
53675;DHT22;39574;50.534;8.500;2023-02-03T22:37:36;7.4;99.9
53675;DHT22;39574;50.534;8.500;2023-02-03T22:43:05;7.4;99.9
53675;DHT22;39574;50.534;8.500;2023-02-03T22:48:18;7.4;99.9
53675;DHT22;39574;50.534;8.500;2023-02-03T22:53:20;7.3;99.9
53675;DHT22;39574;50.534;8.500;2023-02-03T23:02:51;7.3;99.9
53675;DHT22;39574;50.534;8.500;2023-02-03T23:07:57;7.3;99.9
53675;DHT22;39574;50.534;8.500;2023-02-03T23:13:03;7.3;99.9
53675;DHT22;39574;50.534;8.500;2023-02-03T23:18:13;7.3;99.9
53675;DHT22;39574;50.534;8.500;2023-02-03T23:27:43;7.3;99.9
53675;DHT22;39574;50.534;8.500;2023-02-03T23:32:55;7.2;99.9
53675;DHT22;39574;50.534;8.500;2023-02-03T23:37:55;7.2;99.9
53675;DHT22;39574;50.534;8.500;2023-02-03T23:43:07;7.2;99.9
53675;DHT22;39574;50.534;8.500;2023-02-03T23:52:18;7.2;99.9
53675;DHT22;39574;50.534;8.500;2023-02-03T23:57:47;7.2;99.9
